createdAt,value
2019-06-01T00:00:53.029Z,29.00
2019-06-01T00:01:53.024Z,36.80
2019-06-01T00:02:56.329Z,28.80
2019-06-01T00:03:53.021Z,28.20
2019-06-01T00:04:53.022Z,29.40
2019-06-01T00:05:53.019Z,32.60
2019-06-01T00:06:53.018Z,28.00
2019-06-01T00:07:53.018Z,38.80
2019-06-01T00:08:53.017Z,29.10
2019-06-01T00:09:53.026Z,29.70
2019-06-01T00:10:53.014Z,28.70
2019-06-01T00:11:53.014Z,30.40
2019-06-01T00:12:53.014Z,28.30
2019-06-01T00:13:53.014Z,33.20
2019-06-01T00:14:53.016Z,33.90
2019-06-01T00:15:53.014Z,37.10
2019-06-01T00:16:53.010Z,33.80
2019-06-01T00:17:53.012Z,32.20
2019-06-01T00:18:53.010Z,29.30
2019-06-01T00:19:53.010Z,30.10
2019-06-01T00:20:53.010Z,32.40
2019-06-01T00:21:54.240Z,27.10
2019-06-01T00:22:53.004Z,33.30
2019-06-01T00:23:53.007Z,28.50
2019-06-01T00:24:53.005Z,33.00
2019-06-01T00:25:53.006Z,35.70
2019-06-01T00:26:53.003Z,38.30
2019-06-01T00:27:53.002Z,37.20
2019-06-01T00:28:53.108Z,42.00
2019-06-01T00:29:53.148Z,38.20
2019-06-01T00:30:53.000Z,35.00
2019-06-01T00:31:53.005Z,35.70
2019-06-01T00:32:52.998Z,27.30
2019-06-01T00:33:52.995Z,32.00
2019-06-01T00:34:52.994Z,31.60
2019-06-01T00:35:52.998Z,36.90
2019-06-01T00:36:52.994Z,34.50
2019-06-01T00:37:52.992Z,30.30
2019-06-01T00:38:52.993Z,27.50
2019-06-01T00:39:52.991Z,27.00
2019-06-01T00:40:52.993Z,31.20
2019-06-01T00:41:52.991Z,29.40
2019-06-01T00:42:52.985Z,32.10
2019-06-01T00:43:52.991Z,32.20
2019-06-01T00:44:52.988Z,28.60
2019-06-01T00:45:53.204Z,32.40
2019-06-01T00:46:52.983Z,34.80
2019-06-01T00:47:53.080Z,28.50
2019-06-01T00:48:54.216Z,33.20
2019-06-01T00:49:53.166Z,33.70
2019-06-01T00:50:53.301Z,35.30
2019-06-01T00:51:53.755Z,31.90
2019-06-01T00:52:53.407Z,33.40
2019-06-01T00:53:53.577Z,36.50
2019-06-01T00:54:53.627Z,36.50
2019-06-01T00:55:53.642Z,31.70
2019-06-01T00:56:53.881Z,36.10
2019-06-01T00:57:53.943Z,28.90
2019-06-01T00:58:53.932Z,32.40
2019-06-01T00:59:54.927Z,35.30
2019-06-01T01:00:53.764Z,39.10
2019-06-01T01:01:54.145Z,41.50
2019-06-01T01:02:54.307Z,38.40
2019-06-01T01:03:54.337Z,39.40
2019-06-01T01:04:52.978Z,40.90
2019-06-01T01:05:52.975Z,41.40
2019-06-01T01:06:52.970Z,41.30
2019-06-01T01:07:53.503Z,43.30
2019-06-01T01:08:53.055Z,41.10
2019-06-01T01:09:52.967Z,33.20
2019-06-01T01:10:53.111Z,29.20
2019-06-01T01:11:53.317Z,42.40
2019-06-01T01:12:53.197Z,34.10
2019-06-01T01:13:53.559Z,36.90
2019-06-01T01:14:53.352Z,34.70
2019-06-01T01:15:53.502Z,29.40
2019-06-01T01:16:54.151Z,37.90
2019-06-01T01:17:53.948Z,35.50
2019-06-01T01:18:53.836Z,40.40
2019-06-01T01:19:53.997Z,39.60
2019-06-01T01:20:54.064Z,43.80
2019-06-01T01:21:54.056Z,40.70
2019-06-01T01:22:54.292Z,41.40
2019-06-01T01:23:53.260Z,41.30
2019-06-01T01:24:52.952Z,40.30
2019-06-01T01:25:52.952Z,43.00
2019-06-01T01:26:52.947Z,38.90
2019-06-01T01:27:52.947Z,35.00
2019-06-01T01:28:53.051Z,37.00
2019-06-01T01:29:53.199Z,40.50
2019-06-01T01:31:08.356Z,45.00
2019-06-01T01:31:53.218Z,42.00
2019-06-01T01:32:53.574Z,41.20
2019-06-01T01:33:53.431Z,40.50
2019-06-01T01:34:53.739Z,42.90
2019-06-01T01:35:54.109Z,46.50
2019-06-01T01:36:54.234Z,44.30
2019-06-01T01:37:53.894Z,43.40
2019-06-01T01:38:54.252Z,43.50
2019-06-01T01:39:54.171Z,41.90
2019-06-01T01:40:54.114Z,46.10
2019-06-01T01:41:54.163Z,49.00
2019-06-01T01:42:52.930Z,47.20
2019-06-01T01:43:52.932Z,51.30
2019-06-01T01:44:52.927Z,52.40
2019-06-01T01:45:52.929Z,54.20
2019-06-01T01:46:52.924Z,45.70
2019-06-01T01:47:52.930Z,40.10
2019-06-01T01:48:54.067Z,42.60
2019-06-01T01:49:53.818Z,37.90
2019-06-01T01:50:52.923Z,43.30
2019-06-01T01:51:52.942Z,43.30
2019-06-01T01:52:52.918Z,40.80
2019-06-01T01:53:53.069Z,33.40
2019-06-01T01:54:52.919Z,45.40
2019-06-01T01:55:53.021Z,43.50
2019-06-01T01:56:54.048Z,38.20
2019-06-01T01:57:53.282Z,41.00
2019-06-01T01:58:54.222Z,43.10
2019-06-01T01:59:53.362Z,40.00
2019-06-01T02:00:54.539Z,40.20
2019-06-01T02:01:52.910Z,42.70
2019-06-01T02:02:54.006Z,41.40
2019-06-01T02:03:53.739Z,36.30
2019-06-01T02:04:53.684Z,38.20
2019-06-01T02:05:53.022Z,46.10
2019-06-01T02:06:53.922Z,49.40
2019-06-01T02:07:53.000Z,45.70
2019-06-01T02:08:53.525Z,43.60
2019-06-01T02:09:53.231Z,55.30
2019-06-01T02:10:53.325Z,49.20
2019-06-01T02:11:53.423Z,53.70
2019-06-01T02:12:53.426Z,52.60
2019-06-01T02:13:53.640Z,48.20
2019-06-01T02:14:53.680Z,42.50
2019-06-01T02:15:54.108Z,49.80
2019-06-01T02:16:53.955Z,50.60
2019-06-01T02:17:53.926Z,38.10
2019-06-01T02:18:54.317Z,41.30
2019-06-01T02:19:54.074Z,36.10
2019-06-01T02:20:54.250Z,36.40
2019-06-01T02:21:52.887Z,42.10
2019-06-01T02:22:53.074Z,39.10
2019-06-01T02:23:52.992Z,39.30
2019-06-01T02:24:53.774Z,40.60
2019-06-01T02:25:52.977Z,40.20
2019-06-01T02:26:53.134Z,50.50
2019-06-01T02:27:53.146Z,47.70
2019-06-01T02:28:53.212Z,41.10
2019-06-01T02:29:53.129Z,41.90
2019-06-01T02:30:53.947Z,43.00
2019-06-01T02:31:52.877Z,42.60
2019-06-01T02:32:53.854Z,46.00
2019-06-01T02:33:53.764Z,42.90
2019-06-01T02:34:54.284Z,36.50
2019-06-01T02:35:54.379Z,37.30
2019-06-01T02:36:54.302Z,37.40
2019-06-01T02:37:54.518Z,38.70
2019-06-01T02:38:54.510Z,36.60
2019-06-01T02:39:54.212Z,41.50
2019-06-01T02:40:54.747Z,34.70
2019-06-01T02:41:54.760Z,35.90
2019-06-01T02:42:52.862Z,34.50
2019-06-01T02:43:52.857Z,30.60
2019-06-01T02:44:52.859Z,33.60
2019-06-01T02:45:52.864Z,41.50
2019-06-01T02:46:52.853Z,38.50
2019-06-01T02:47:52.855Z,39.10
2019-06-01T02:48:52.855Z,38.70
2019-06-01T02:49:52.850Z,39.00
2019-06-01T02:50:52.847Z,37.10
2019-06-01T02:51:52.847Z,31.30
2019-06-01T02:52:52.848Z,34.90
2019-06-01T02:53:52.845Z,32.20
2019-06-01T02:54:52.842Z,38.80
2019-06-01T02:55:52.842Z,42.20
2019-06-01T02:56:52.842Z,41.10
2019-06-01T02:57:52.833Z,37.60
2019-06-01T02:58:52.839Z,33.90
2019-06-01T02:59:52.836Z,36.80
2019-06-01T03:00:52.837Z,35.30
2019-06-01T03:01:57.257Z,40.20
2019-06-01T03:02:52.834Z,37.60
2019-06-01T03:03:52.830Z,38.00
2019-06-01T03:04:52.833Z,38.50
2019-06-01T03:05:52.830Z,40.60
2019-06-01T03:06:52.827Z,37.50
2019-06-01T03:07:52.827Z,38.90
2019-06-01T03:08:52.825Z,43.30
2019-06-01T03:09:52.825Z,40.60
2019-06-01T03:10:52.822Z,39.20
2019-06-01T03:11:52.822Z,38.70
2019-06-01T03:12:52.823Z,40.30
2019-06-01T03:13:52.825Z,39.00
2019-06-01T03:14:52.824Z,40.20
2019-06-01T03:15:52.813Z,40.00
2019-06-01T03:16:52.815Z,41.80
2019-06-01T03:17:52.838Z,44.40
2019-06-01T03:18:52.822Z,39.70
2019-06-01T03:19:52.815Z,39.50
2019-06-01T03:20:52.811Z,41.50
2019-06-01T03:21:52.809Z,41.00
2019-06-01T03:22:52.808Z,44.30
2019-06-01T03:23:52.804Z,42.10
2019-06-01T03:24:52.804Z,40.00
2019-06-01T03:25:52.803Z,37.50
2019-06-01T03:26:52.803Z,38.10
2019-06-01T03:27:52.804Z,39.50
2019-06-01T03:28:52.797Z,39.60
2019-06-01T03:29:52.799Z,39.10
2019-06-01T03:30:52.803Z,38.60
2019-06-01T03:31:52.796Z,39.80
2019-06-01T03:32:52.795Z,36.20
2019-06-01T03:33:52.798Z,37.00
2019-06-01T03:34:52.792Z,36.60
2019-06-01T03:35:52.791Z,39.40
2019-06-01T03:36:56.022Z,39.70
2019-06-01T03:37:52.791Z,38.50
2019-06-01T03:38:52.786Z,38.60
2019-06-01T03:39:52.785Z,34.70
2019-06-01T03:40:52.787Z,31.30
2019-06-01T03:41:52.790Z,35.70
2019-06-01T03:42:52.783Z,31.60
2019-06-01T03:43:52.783Z,32.90
2019-06-01T03:44:52.783Z,30.00
2019-06-01T03:45:52.781Z,30.10
2019-06-01T03:46:52.781Z,30.10
2019-06-01T03:47:52.778Z,28.40
2019-06-01T03:48:52.779Z,32.20
2019-06-01T03:49:52.775Z,38.00
2019-06-01T03:50:52.774Z,32.00
2019-06-01T03:51:52.773Z,32.20
2019-06-01T03:52:52.771Z,32.30
2019-06-01T03:53:52.769Z,28.90
2019-06-01T03:54:52.772Z,31.40
2019-06-01T03:55:52.769Z,32.20
2019-06-01T03:56:52.770Z,31.80
2019-06-01T03:57:52.769Z,28.90
2019-06-01T03:58:52.767Z,27.90
2019-06-01T03:59:52.763Z,25.30
2019-06-01T04:00:52.847Z,23.90
2019-06-01T04:01:52.765Z,25.80
2019-06-01T04:02:52.762Z,25.00
2019-06-01T04:03:52.760Z,24.70
2019-06-01T04:04:52.760Z,23.00
2019-06-01T04:05:52.759Z,22.70
2019-06-01T04:06:52.777Z,23.00
2019-06-01T04:07:52.761Z,23.70
2019-06-01T04:08:52.765Z,22.00
2019-06-01T04:09:52.754Z,22.10
2019-06-01T04:10:52.757Z,22.80
2019-06-01T04:11:52.752Z,23.30
2019-06-01T04:12:52.756Z,20.20
2019-06-01T04:13:52.757Z,20.40
2019-06-01T04:14:52.763Z,22.70
2019-06-01T04:15:52.756Z,22.30
2019-06-01T04:16:52.764Z,23.60
2019-06-01T04:17:52.757Z,24.90
2019-06-01T04:18:52.752Z,23.60
2019-06-01T04:19:52.756Z,23.40
2019-06-01T04:20:52.759Z,22.00
2019-06-01T04:21:52.764Z,22.10
2019-06-01T04:22:52.764Z,22.00
2019-06-01T04:23:52.756Z,20.50
2019-06-01T04:24:52.761Z,19.90
2019-06-01T04:25:52.764Z,19.60
2019-06-01T04:26:52.752Z,18.40
2019-06-01T04:27:52.754Z,18.50
2019-06-01T04:28:52.751Z,19.40
2019-06-01T04:29:52.762Z,18.70
2019-06-01T04:30:52.761Z,20.00
2019-06-01T04:31:52.750Z,20.50
2019-06-01T04:32:52.755Z,21.20
2019-06-01T04:33:52.755Z,19.50
2019-06-01T04:34:52.751Z,19.70
2019-06-01T04:35:52.759Z,18.90
2019-06-01T04:36:52.756Z,18.90
2019-06-01T04:37:52.764Z,18.20
2019-06-01T04:38:52.761Z,18.30
2019-06-01T04:39:52.758Z,18.70
2019-06-01T04:40:52.763Z,18.70
2019-06-01T04:41:52.761Z,18.60
2019-06-01T04:42:52.763Z,18.00
2019-06-01T04:43:52.768Z,17.30
2019-06-01T04:44:52.765Z,18.20
2019-06-01T04:45:52.765Z,17.80
2019-06-01T04:46:52.767Z,19.40
2019-06-01T04:47:52.771Z,18.70
2019-06-01T04:48:52.772Z,18.60
2019-06-01T04:49:52.768Z,17.80
2019-06-01T04:50:52.769Z,17.60
2019-06-01T04:51:52.771Z,17.00
2019-06-01T04:52:52.776Z,16.70
2019-06-01T04:53:52.778Z,17.10
2019-06-01T04:54:52.777Z,17.60
2019-06-01T04:55:52.776Z,17.50
2019-06-01T04:56:52.781Z,17.70
2019-06-01T04:57:52.781Z,17.30
2019-06-01T04:58:52.785Z,17.40
2019-06-01T04:59:52.786Z,16.70
2019-06-01T05:00:52.787Z,17.40
2019-06-01T05:01:52.789Z,17.30
2019-06-01T05:03:04.908Z,17.30
2019-06-01T05:03:52.793Z,16.30
2019-06-01T05:04:52.800Z,16.90
2019-06-01T05:05:52.801Z,16.10
2019-06-01T05:06:52.800Z,17.30
2019-06-01T05:07:52.806Z,16.10
2019-06-01T05:08:52.818Z,16.90
2019-06-01T05:09:52.812Z,16.10
2019-06-01T05:10:52.814Z,16.80
2019-06-01T05:11:52.816Z,15.80
2019-06-01T05:12:52.819Z,16.00
2019-06-01T05:13:52.821Z,15.50
2019-06-01T05:14:52.825Z,15.20
2019-06-01T05:15:52.832Z,15.50
2019-06-01T05:16:52.834Z,15.00
2019-06-01T05:17:52.835Z,15.60
2019-06-01T05:18:52.840Z,15.50
2019-06-01T05:19:52.843Z,15.50
2019-06-01T05:20:52.844Z,15.80
2019-06-01T05:21:52.853Z,16.40
2019-06-01T05:22:52.852Z,15.50
2019-06-01T05:23:52.866Z,16.00
2019-06-01T05:24:52.861Z,17.10
2019-06-01T05:25:53.423Z,17.60
2019-06-01T05:26:52.867Z,18.20
2019-06-01T05:27:52.872Z,18.00
2019-06-01T05:28:52.875Z,18.20
2019-06-01T05:29:52.879Z,18.10
2019-06-01T05:30:52.881Z,18.60
2019-06-01T05:31:52.886Z,19.90
2019-06-01T05:32:52.890Z,19.50
2019-06-01T05:33:52.898Z,19.80
2019-06-01T05:34:52.895Z,20.10
2019-06-01T05:35:52.893Z,19.40
2019-06-01T05:36:52.903Z,19.50
2019-06-01T05:37:52.905Z,21.20
2019-06-01T05:38:52.912Z,20.90
2019-06-01T05:39:52.913Z,20.00
2019-06-01T05:40:52.918Z,20.70
2019-06-01T05:41:52.917Z,19.70
2019-06-01T05:42:52.922Z,20.50
2019-06-01T05:43:52.925Z,20.80
2019-06-01T05:44:52.928Z,21.80
2019-06-01T05:45:52.929Z,21.60
2019-06-01T05:46:52.932Z,21.10
2019-06-01T05:47:52.938Z,20.20
2019-06-01T05:48:52.946Z,20.60
2019-06-01T05:49:52.945Z,20.20
2019-06-01T05:50:52.948Z,21.40
2019-06-01T05:51:52.946Z,21.70
2019-06-01T05:52:52.950Z,20.30
2019-06-01T05:53:52.950Z,21.00
2019-06-01T05:54:52.961Z,19.50
2019-06-01T05:55:52.960Z,21.10
2019-06-01T05:56:52.960Z,21.70
2019-06-01T05:57:52.964Z,22.10
2019-06-01T05:58:52.965Z,20.90
2019-06-01T05:59:52.968Z,21.50
2019-06-01T06:00:52.971Z,20.20
2019-06-01T06:01:52.974Z,19.70
2019-06-01T06:02:52.976Z,21.50
2019-06-01T06:03:52.977Z,20.50
2019-06-01T06:04:54.191Z,21.90
2019-06-01T06:05:52.984Z,20.10
2019-06-01T06:06:52.987Z,21.70
2019-06-01T06:07:52.990Z,19.60
2019-06-01T06:08:52.992Z,18.70
2019-06-01T06:09:52.994Z,20.90
2019-06-01T06:10:52.996Z,21.20
2019-06-01T06:11:53.975Z,20.30
2019-06-01T06:12:53.001Z,21.00
2019-06-01T06:13:53.005Z,21.70
2019-06-01T06:14:53.005Z,22.40
2019-06-01T06:15:53.008Z,22.60
2019-06-01T06:16:53.009Z,22.60
2019-06-01T06:17:53.017Z,21.20
2019-06-01T06:18:53.015Z,20.60
2019-06-01T06:19:53.018Z,20.30
2019-06-01T06:20:53.024Z,19.30
2019-06-01T06:21:53.033Z,20.40
2019-06-01T06:22:53.028Z,20.60
2019-06-01T06:23:53.025Z,20.60
2019-06-01T06:24:53.028Z,21.00
2019-06-01T06:25:53.031Z,18.70
2019-06-01T06:26:53.035Z,19.40
2019-06-01T06:27:53.035Z,19.20
2019-06-01T06:28:53.039Z,17.40
2019-06-01T06:29:53.043Z,16.40
2019-06-01T06:30:53.044Z,17.10
2019-06-01T06:31:53.049Z,15.80
2019-06-01T06:32:53.055Z,14.70
2019-06-01T06:33:56.494Z,14.70
2019-06-01T06:34:53.066Z,13.20
2019-06-01T06:35:53.059Z,13.10
2019-06-01T06:36:53.063Z,13.30
2019-06-01T06:37:53.069Z,11.90
2019-06-01T06:38:53.071Z,12.40
2019-06-01T06:39:53.078Z,12.20
2019-06-01T06:40:53.079Z,12.10
2019-06-01T06:41:53.086Z,12.80
2019-06-01T06:42:53.089Z,11.60
2019-06-01T06:43:53.091Z,11.50
2019-06-01T06:44:53.103Z,11.20
2019-06-01T06:45:53.107Z,10.70
2019-06-01T06:46:53.106Z,10.10
2019-06-01T06:47:53.110Z,10.30
2019-06-01T06:48:53.115Z,10.40
2019-06-01T06:49:53.130Z,9.50
2019-06-01T06:50:53.136Z,9.40
2019-06-01T06:51:53.133Z,9.40
2019-06-01T06:52:53.138Z,9.90
2019-06-01T06:53:53.144Z,9.90
2019-06-01T06:54:53.158Z,10.60
2019-06-01T06:55:53.155Z,10.20
2019-06-01T06:56:53.162Z,9.40
2019-06-01T06:57:53.168Z,9.30
2019-06-01T06:58:53.179Z,9.40
2019-06-01T06:59:53.179Z,9.00
2019-06-01T07:00:53.187Z,9.20
2019-06-01T07:01:53.200Z,9.30
2019-06-01T07:02:53.197Z,8.90
2019-06-01T07:03:53.214Z,9.10
2019-06-01T07:04:53.210Z,8.90
2019-06-01T07:05:53.226Z,9.20
2019-06-01T07:06:53.223Z,8.80
2019-06-01T07:07:53.230Z,8.70
2019-06-01T07:08:53.237Z,8.30
2019-06-01T07:09:53.265Z,8.70
2019-06-01T07:10:53.252Z,8.30
2019-06-01T07:11:53.318Z,8.30
2019-06-01T07:12:53.264Z,8.30
2019-06-01T07:13:53.285Z,7.80
2019-06-01T07:14:53.277Z,8.00
2019-06-01T07:15:53.285Z,7.50
2019-06-01T07:16:53.293Z,7.70
2019-06-01T07:17:53.307Z,8.50
2019-06-01T07:18:53.307Z,8.00
2019-06-01T07:19:53.327Z,7.50
2019-06-01T07:20:53.335Z,7.70
2019-06-01T07:21:53.331Z,7.60
2019-06-01T07:22:53.335Z,7.40
2019-06-01T07:23:53.370Z,7.50
2019-06-01T07:24:53.369Z,7.40
2019-06-01T07:25:53.374Z,7.50
2019-06-01T07:26:53.372Z,7.50
2019-06-01T07:27:53.383Z,7.40
2019-06-01T07:28:53.385Z,7.70
2019-06-01T07:29:53.393Z,7.70
2019-06-01T07:30:53.399Z,7.70
2019-06-01T07:31:53.407Z,7.30
2019-06-01T07:32:53.415Z,7.40
2019-06-01T07:33:53.425Z,7.00
2019-06-01T07:34:53.431Z,6.70
2019-06-01T07:35:53.439Z,7.20
2019-06-01T07:36:53.460Z,7.30
2019-06-01T07:37:53.458Z,7.40
2019-06-01T07:38:53.467Z,7.00
2019-06-01T07:39:53.472Z,7.50
2019-06-01T07:40:53.484Z,7.70
2019-06-01T07:41:53.502Z,7.10
2019-06-01T07:42:53.503Z,6.80
2019-06-01T07:43:53.508Z,6.90
2019-06-01T07:44:53.517Z,7.60
2019-06-01T07:45:53.525Z,7.00
2019-06-01T07:46:53.534Z,6.90
2019-06-01T07:47:53.545Z,6.70
2019-06-01T07:48:53.552Z,7.30
2019-06-01T07:49:53.565Z,7.30
2019-06-01T07:50:53.568Z,7.20
2019-06-01T07:51:53.630Z,6.90
2019-06-01T07:52:53.585Z,7.20
2019-06-01T07:53:53.592Z,7.00
2019-06-01T07:54:53.599Z,6.90
2019-06-01T07:55:53.610Z,6.50
2019-06-01T07:56:53.616Z,7.30
2019-06-01T07:57:53.625Z,7.20
2019-06-01T07:58:53.633Z,6.60
2019-06-01T07:59:53.659Z,7.00
2019-06-01T08:00:53.652Z,6.90
2019-06-01T08:01:53.661Z,6.80
2019-06-01T08:02:53.667Z,6.60
2019-06-01T08:03:53.680Z,6.60
2019-06-01T08:04:54.809Z,6.50
2019-06-01T08:05:53.694Z,6.40
2019-06-01T08:06:53.707Z,6.70
2019-06-01T08:07:53.714Z,6.90
2019-06-01T08:08:53.721Z,6.60
2019-06-01T08:09:53.735Z,6.30
2019-06-01T08:10:53.743Z,6.10
2019-06-01T08:11:53.754Z,6.30
2019-06-01T08:12:53.759Z,6.80
2019-06-01T08:13:53.769Z,6.10
2019-06-01T08:14:53.782Z,5.80
2019-06-01T08:15:53.785Z,6.10
2019-06-01T08:16:53.792Z,5.70
2019-06-01T08:17:53.802Z,5.90
2019-06-01T08:18:53.810Z,5.50
2019-06-01T08:19:53.818Z,5.50
2019-06-01T08:20:53.825Z,5.70
2019-06-01T08:21:53.909Z,5.30
2019-06-01T08:22:53.842Z,5.30
2019-06-01T08:23:53.855Z,4.90
2019-06-01T08:24:53.863Z,5.30
2019-06-01T08:25:53.874Z,5.10
2019-06-01T08:26:53.884Z,5.20
2019-06-01T08:27:53.906Z,4.80
2019-06-01T08:28:53.902Z,5.00
2019-06-01T08:29:53.913Z,4.80
2019-06-01T08:30:53.921Z,4.80
2019-06-01T08:31:55.937Z,4.80
2019-06-01T08:32:53.936Z,4.70
2019-06-01T08:33:53.945Z,5.00
2019-06-01T08:35:07.194Z,5.10
2019-06-01T08:35:53.963Z,5.00
2019-06-01T08:36:53.972Z,4.90
2019-06-01T08:37:53.981Z,4.80
2019-06-01T08:38:53.991Z,4.80
2019-06-01T08:39:53.998Z,4.80
2019-06-01T08:40:54.009Z,4.50
2019-06-01T08:41:54.019Z,4.50
2019-06-01T08:42:54.059Z,4.10
2019-06-01T08:43:54.045Z,4.20
2019-06-01T08:44:54.045Z,4.20
2019-06-01T08:45:54.057Z,4.30
2019-06-01T08:46:54.066Z,4.40
2019-06-01T08:47:54.073Z,4.10
2019-06-01T08:48:54.082Z,4.20
2019-06-01T08:49:54.096Z,3.90
2019-06-01T08:50:54.101Z,3.80
2019-06-01T08:51:54.113Z,4.40
2019-06-01T08:52:54.122Z,4.30
2019-06-01T08:53:54.132Z,4.10
2019-06-01T08:54:54.130Z,4.10
2019-06-01T08:55:54.143Z,3.90
2019-06-01T08:56:54.153Z,4.10
2019-06-01T08:57:54.171Z,3.80
2019-06-01T08:58:54.174Z,3.90
2019-06-01T08:59:54.181Z,3.90
2019-06-01T09:00:54.190Z,3.80
2019-06-01T09:01:54.200Z,3.60
2019-06-01T09:02:54.210Z,3.30
2019-06-01T09:03:54.218Z,3.40
2019-06-01T09:04:54.234Z,3.30
2019-06-01T09:05:54.235Z,3.50
2019-06-01T09:06:54.243Z,3.40
2019-06-01T09:07:54.256Z,3.40
2019-06-01T09:08:54.265Z,3.20
2019-06-01T09:09:54.265Z,3.20
2019-06-01T09:10:54.281Z,3.20
2019-06-01T09:11:54.281Z,3.60
2019-06-01T09:12:54.298Z,3.50
2019-06-01T09:13:54.298Z,3.50
2019-06-01T09:14:54.301Z,3.30
2019-06-01T09:15:54.355Z,3.40
2019-06-01T09:16:54.313Z,3.20
2019-06-01T09:17:54.330Z,3.60
2019-06-01T09:18:54.336Z,3.30
2019-06-01T09:19:54.332Z,3.60
2019-06-01T09:20:54.339Z,3.40
2019-06-01T09:21:54.348Z,3.40
2019-06-01T09:22:54.351Z,3.40
2019-06-01T09:23:54.357Z,3.50
2019-06-01T09:24:54.370Z,4.30
2019-06-01T09:25:54.371Z,4.10
2019-06-01T09:26:54.373Z,3.90
2019-06-01T09:27:54.382Z,3.50
2019-06-01T09:28:54.387Z,3.80
2019-06-01T09:29:54.392Z,3.90
2019-06-01T09:30:54.399Z,3.60
2019-06-01T09:31:54.403Z,3.40
2019-06-01T09:32:54.411Z,3.50
2019-06-01T09:33:54.416Z,3.90
2019-06-01T09:34:54.419Z,3.90
2019-06-01T09:35:56.329Z,4.10
2019-06-01T09:36:55.672Z,4.10
2019-06-01T09:37:54.439Z,3.90
2019-06-01T09:38:54.442Z,4.00
2019-06-01T09:39:54.442Z,3.70
2019-06-01T09:40:54.449Z,3.50
2019-06-01T09:41:54.454Z,3.70
2019-06-01T09:42:54.461Z,4.10
2019-06-01T09:43:54.467Z,3.90
2019-06-01T09:44:54.468Z,4.60
2019-06-01T09:45:54.473Z,4.50
2019-06-01T09:46:54.477Z,4.30
2019-06-01T09:47:54.486Z,4.60
2019-06-01T09:48:54.487Z,4.00
2019-06-01T09:49:54.494Z,4.20
2019-06-01T09:50:54.495Z,4.40
2019-06-01T09:51:54.505Z,4.20
2019-06-01T09:52:54.507Z,4.80
2019-06-01T09:53:54.515Z,4.70
2019-06-01T09:54:54.523Z,4.30
2019-06-01T09:55:54.522Z,4.30
2019-06-01T09:56:54.529Z,4.40
2019-06-01T09:57:54.533Z,4.40
2019-06-01T09:58:54.533Z,3.90
2019-06-01T09:59:54.539Z,4.30
2019-06-01T10:00:54.612Z,4.90
2019-06-01T10:01:54.549Z,4.40
2019-06-01T10:02:54.553Z,4.40
2019-06-01T10:03:54.560Z,4.30
2019-06-01T10:04:54.564Z,4.30
2019-06-01T10:06:01.964Z,4.50
2019-06-01T10:06:54.573Z,4.30
2019-06-01T10:07:54.575Z,4.50
2019-06-01T10:08:54.581Z,4.50
2019-06-01T10:09:54.587Z,4.50
2019-06-01T10:10:54.591Z,3.80
2019-06-01T10:11:54.596Z,4.30
2019-06-01T10:12:54.602Z,4.20
2019-06-01T10:13:54.605Z,4.50
2019-06-01T10:14:54.608Z,4.40
2019-06-01T10:15:54.613Z,4.00
2019-06-01T10:16:54.629Z,4.10
2019-06-01T10:17:54.620Z,3.90
2019-06-01T10:18:54.629Z,4.00
2019-06-01T10:19:54.631Z,4.00
2019-06-01T10:20:54.635Z,3.60
2019-06-01T10:21:54.640Z,4.00
2019-06-01T10:22:54.646Z,3.90
2019-06-01T10:23:54.661Z,4.40
2019-06-01T10:24:54.653Z,4.40
2019-06-01T10:25:54.662Z,4.70
2019-06-01T10:26:54.662Z,4.20
2019-06-01T10:27:54.669Z,4.30
2019-06-01T10:28:54.671Z,3.70
2019-06-01T10:29:54.680Z,3.90
2019-06-01T10:30:54.681Z,3.70
2019-06-01T10:31:54.685Z,4.00
2019-06-01T10:32:54.696Z,3.80
2019-06-01T10:33:54.695Z,4.30
2019-06-01T10:34:54.703Z,4.00
2019-06-01T10:35:54.702Z,3.60
2019-06-01T10:36:54.707Z,4.30
2019-06-01T10:37:54.711Z,3.90
2019-06-01T10:38:54.718Z,4.10
2019-06-01T10:39:54.720Z,4.10
2019-06-01T10:40:54.727Z,4.60
2019-06-01T10:41:54.734Z,4.50
2019-06-01T10:42:54.740Z,4.50
2019-06-01T10:43:54.737Z,3.90
2019-06-01T10:44:54.752Z,3.90
2019-06-01T10:45:54.748Z,3.70
2019-06-01T10:46:54.750Z,3.60
2019-06-01T10:47:54.755Z,3.70
2019-06-01T10:48:54.765Z,3.60
2019-06-01T10:49:54.764Z,3.90
2019-06-01T10:50:54.768Z,3.60
2019-06-01T10:51:54.770Z,3.70
2019-06-01T10:52:54.777Z,3.70
2019-06-01T10:53:54.782Z,3.70
2019-06-01T10:54:54.785Z,3.90
2019-06-01T10:55:54.788Z,3.70
2019-06-01T10:56:54.793Z,3.60
2019-06-01T10:57:54.803Z,3.70
2019-06-01T10:58:59.998Z,4.00
2019-06-01T10:59:54.809Z,3.50
2019-06-01T11:00:54.814Z,3.40
2019-06-01T11:01:54.817Z,3.80
2019-06-01T11:02:54.823Z,4.10
2019-06-01T11:03:54.824Z,3.60
2019-06-01T11:04:54.829Z,3.60
2019-06-01T11:05:54.834Z,3.20
2019-06-01T11:06:54.837Z,3.10
2019-06-01T11:07:54.844Z,3.00
2019-06-01T11:08:54.852Z,2.90
2019-06-01T11:09:54.853Z,2.80
2019-06-01T11:10:54.862Z,2.80
2019-06-01T11:11:54.858Z,2.50
2019-06-01T11:12:54.864Z,2.60
2019-06-01T11:13:54.871Z,2.70
2019-06-01T11:14:54.874Z,2.50
2019-06-01T11:15:54.877Z,2.60
2019-06-01T11:16:56.519Z,2.50
2019-06-01T11:17:54.884Z,2.60
2019-06-01T11:18:54.887Z,2.60
2019-06-01T11:19:54.895Z,2.60
2019-06-01T11:20:54.899Z,2.50
2019-06-01T11:21:54.901Z,2.70
2019-06-01T11:22:54.904Z,2.60
2019-06-01T11:23:54.910Z,2.40
2019-06-01T11:24:54.918Z,2.50
2019-06-01T11:25:54.920Z,2.40
2019-06-01T11:26:54.923Z,2.50
2019-06-01T11:27:54.928Z,2.40
2019-06-01T11:28:54.936Z,2.30
2019-06-01T11:29:54.938Z,2.30
2019-06-01T11:30:54.940Z,2.30
2019-06-01T11:31:54.950Z,2.10
2019-06-01T11:32:54.950Z,2.00
2019-06-01T11:33:54.959Z,2.20
2019-06-01T11:34:54.960Z,2.30
2019-06-01T11:35:54.965Z,2.30
2019-06-01T11:37:04.979Z,2.40
2019-06-01T11:37:54.976Z,2.40
2019-06-01T11:38:54.981Z,2.70
2019-06-01T11:39:54.980Z,2.20
2019-06-01T11:40:55.004Z,2.50
2019-06-01T11:41:54.995Z,2.20
2019-06-01T11:42:54.996Z,2.00
2019-06-01T11:43:55.000Z,2.10
2019-06-01T11:44:55.006Z,2.20
2019-06-01T11:45:55.007Z,2.30
2019-06-01T11:46:55.013Z,2.00
2019-06-01T11:47:55.019Z,2.20
2019-06-01T11:48:55.031Z,2.30
2019-06-01T11:49:55.025Z,2.20
2019-06-01T11:50:55.030Z,2.00
2019-06-01T11:51:55.035Z,2.00
2019-06-01T11:52:55.041Z,2.10
2019-06-01T11:53:55.042Z,2.30
2019-06-01T11:54:55.048Z,2.20
2019-06-01T11:55:55.054Z,2.10
2019-06-01T11:56:55.058Z,2.00
2019-06-01T11:57:55.062Z,2.00
2019-06-01T11:58:55.065Z,2.00
2019-06-01T11:59:55.070Z,2.00
2019-06-01T12:00:55.074Z,2.10
2019-06-01T12:01:55.078Z,2.10
2019-06-01T12:02:55.085Z,2.00
2019-06-01T12:03:55.088Z,1.90
2019-06-01T12:04:55.097Z,2.10
2019-06-01T12:05:55.099Z,2.30
2019-06-01T12:06:55.103Z,2.00
2019-06-01T12:07:55.113Z,2.00
2019-06-01T12:08:55.116Z,2.10
2019-06-01T12:09:55.114Z,2.00
2019-06-01T12:10:55.120Z,1.90
2019-06-01T12:11:55.123Z,2.00
2019-06-01T12:12:55.129Z,2.10
2019-06-01T12:13:55.137Z,2.20
2019-06-01T12:14:55.139Z,2.10
2019-06-01T12:15:55.141Z,2.20
2019-06-01T12:16:55.145Z,2.10
2019-06-01T12:17:55.157Z,2.40
2019-06-01T12:18:55.158Z,2.20
2019-06-01T12:19:55.163Z,2.00
2019-06-01T12:20:55.167Z,2.30
2019-06-01T12:21:55.169Z,2.10
2019-06-01T12:22:55.181Z,2.20
2019-06-01T12:23:55.182Z,2.10
2019-06-01T12:24:55.183Z,2.00
2019-06-01T12:25:55.187Z,2.10
2019-06-01T12:26:55.190Z,2.30
2019-06-01T12:27:55.194Z,2.10
2019-06-01T12:28:55.199Z,2.20
2019-06-01T12:29:55.209Z,2.10
2019-06-01T12:30:55.209Z,2.10
2019-06-01T12:31:55.214Z,2.20
2019-06-01T12:32:55.216Z,2.20
2019-06-01T12:33:55.224Z,2.00
2019-06-01T12:34:55.236Z,2.00
2019-06-01T12:35:55.234Z,2.10
2019-06-01T12:36:55.329Z,2.20
2019-06-01T12:38:05.390Z,2.00
2019-06-01T12:38:55.246Z,2.00
2019-06-01T12:39:55.348Z,2.30
2019-06-01T12:40:55.253Z,2.20
2019-06-01T12:41:55.262Z,2.10
2019-06-01T12:42:55.261Z,2.50
2019-06-01T12:43:55.266Z,2.50
2019-06-01T12:44:55.272Z,2.30
2019-06-01T12:46:06.742Z,2.00
2019-06-01T12:46:55.281Z,2.10
2019-06-01T12:47:58.543Z,2.20
2019-06-01T12:48:55.289Z,2.00
2019-06-01T12:49:55.292Z,1.90
2019-06-01T12:50:55.295Z,2.30
2019-06-01T12:51:55.301Z,2.20
2019-06-01T12:52:55.310Z,2.00
2019-06-01T12:53:55.308Z,2.20
2019-06-01T12:54:55.315Z,1.90
2019-06-01T12:55:55.321Z,2.00
2019-06-01T12:56:55.326Z,2.10
2019-06-01T12:57:55.330Z,1.90
2019-06-01T12:58:55.337Z,1.90
2019-06-01T12:59:55.337Z,1.90
2019-06-01T13:00:55.342Z,2.10
2019-06-01T13:01:55.351Z,2.10
2019-06-01T13:03:06.642Z,2.10
2019-06-01T13:03:55.356Z,2.10
2019-06-01T13:04:55.370Z,2.00